Time;durP1;ratioP1;P1;durP2;ratioP2;P2;SDS_P1;SDS_P2;PMS_P1;PMS_P2;Temp;Humidity;BMP_temperature;BMP_pressure;BME280_temperature;BME280_humidity;BME280_pressure;Samples;Min_cycle;Max_cycle;Signal;HPM_P1;HPM_P2
2023/12/05 00:01:34;;;;;;;1.07;0.97;;;1.40;99.90;;;;;;5017828;28;20209;-88
2023/12/05 00:04:00;;;;;;;0.50;0.50;;;1.40;99.90;;;;;;5017866;28;20631;-88
2023/12/05 00:06:26;;;;;;;1.50;1.50;;;1.40;99.90;;;;;;5033591;28;20227;-88
2023/12/05 00:08:53;;;;;;;3.37;3.17;;;1.40;99.90;;;;;;5017336;28;20203;-88
2023/12/05 00:11:21;;;;;;;1.33;1.17;;;1.40;99.90;;;;;;5017381;28;20202;-88
2023/12/05 00:13:47;;;;;;;0.80;0.80;;;1.30;99.90;;;;;;5033765;28;20179;-88
2023/12/05 00:16:13;;;;;;;0.53;0.53;;;1.40;99.90;;;;;;5001249;28;20701;-88
2023/12/05 00:18:39;;;;;;;1.00;1.00;;;1.40;99.90;;;;;;5033804;28;20185;-86
2023/12/05 00:21:05;;;;;;;0.67;0.67;;;1.50;99.90;;;;;;5033761;28;20202;-87
2023/12/05 00:23:31;;;;;;;3.40;1.40;;;1.40;99.90;;;;;;5017655;28;20632;-87
2023/12/05 00:25:57;;;;;;;1.60;1.50;;;1.30;99.90;;;;;;5033423;28;20274;-87
2023/12/05 00:28:23;;;;;;;1.63;1.57;;;1.50;99.90;;;;;;5033822;28;20274;-88
2023/12/05 00:30:48;;;;;;;0.80;0.80;;;1.50;99.90;;;;;;5016760;28;20210;-87
2023/12/05 00:33:14;;;;;;;1.80;1.70;;;1.40;99.90;;;;;;5016737;28;20179;-88
2023/12/05 00:35:40;;;;;;;1.13;1.03;;;1.40;99.90;;;;;;5033577;28;20183;-87
2023/12/05 00:38:06;;;;;;;1.07;1.07;;;1.40;99.90;;;;;;5017155;28;20268;-88
2023/12/05 00:40:32;;;;;;;0.60;0.60;;;1.30;99.90;;;;;;5033640;28;20191;-87
2023/12/05 00:42:57;;;;;;;0.77;0.77;;;1.40;99.90;;;;;;5033356;28;20505;-86
2023/12/05 00:45:23;;;;;;;1.80;1.10;;;1.30;99.90;;;;;;5000610;28;20638;-88
2023/12/05 00:47:53;;;;;;;0.30;0.30;;;1.30;99.90;;;;;;5016626;28;20213;-86
2023/12/05 00:50:19;;;;;;;0.50;0.50;;;1.40;99.90;;;;;;5033359;28;20668;-86
2023/12/05 00:52:46;;;;;;;2.33;1.23;;;1.30;99.90;;;;;;5016412;28;20187;-87
2023/12/05 00:55:12;;;;;;;4.07;1.67;;;1.30;99.90;;;;;;5017094;28;20182;-88
2023/12/05 00:57:37;;;;;;;1.90;1.77;;;1.20;99.90;;;;;;5033188;28;20198;-86
2023/12/05 01:00:05;;;;;;;1.33;1.33;;;1.40;99.90;;;;;;5000480;28;20187;-86
2023/12/05 01:02:31;;;;;;;0.30;0.30;;;1.20;99.90;;;;;;5033950;28;20222;-87
2023/12/05 01:04:57;;;;;;;0.33;0.33;;;1.40;99.90;;;;;;5015618;28;20269;-87
2023/12/05 01:07:22;;;;;;;1.70;1.57;;;1.20;99.90;;;;;;5032361;28;20183;-86
2023/12/05 01:09:48;;;;;;;0.80;0.80;;;1.20;99.90;;;;;;5032350;28;20722;-87
2023/12/05 01:12:14;;;;;;;1.50;1.40;;;1.40;99.90;;;;;;5016268;28;20241;-87
2023/12/05 01:14:40;;;;;;;0.30;0.30;;;1.20;99.90;;;;;;5032596;28;20274;-87
2023/12/05 01:17:06;;;;;;;1.70;1.70;;;1.30;99.90;;;;;;4999996;28;20228;-87
2023/12/05 01:19:31;;;;;;;0.40;0.40;;;1.30;99.90;;;;;;5032457;28;20187;-88
2023/12/05 01:21:57;;;;;;;1.17;1.13;;;1.10;99.90;;;;;;5032002;28;20186;-89
2023/12/05 01:24:23;;;;;;;1.03;0.90;;;1.20;99.90;;;;;;5032618;28;20628;-87
2023/12/05 01:26:49;;;;;;;1.23;1.13;;;1.10;99.90;;;;;;5015968;28;20662;-87
2023/12/05 01:29:14;;;;;;;3.87;0.87;;;1.20;99.90;;;;;;5015455;28;20214;-87
2023/12/05 01:31:40;;;;;;;1.40;1.40;;;1.20;99.90;;;;;;5015601;28;20179;-89
2023/12/05 01:34:06;;;;;;;1.27;1.23;;;1.20;99.90;;;;;;5015620;28;20608;-87
2023/12/05 01:36:32;;;;;;;1.33;1.23;;;1.20;99.90;;;;;;4999458;28;20198;-86
2023/12/05 01:38:57;;;;;;;1.17;0.97;;;1.30;99.90;;;;;;5015515;28;20183;-88
2023/12/05 01:41:23;;;;;;;1.50;1.40;;;1.30;99.90;;;;;;5032178;28;20183;-88
2023/12/05 01:43:49;;;;;;;1.07;1.07;;;1.40;99.90;;;;;;5031951;28;20320;-87
2023/12/05 01:46:16;;;;;;;2.57;2.30;;;1.10;99.90;;;;;;4999006;28;20189;-87
2023/12/05 01:48:44;;;;;;;0.73;0.73;;;1.20;99.90;;;;;;5031798;28;20179;-87
2023/12/05 01:51:10;;;;;;;1.50;1.40;;;1.20;99.90;;;;;;5032167;28;20219;-88
2023/12/05 01:53:39;;;;;;;0.77;0.77;;;1.20;99.90;;;;;;5015610;28;20175;-88
2023/12/05 01:56:06;;;;;;;1.00;1.00;;;1.20;99.90;;;;;;5031949;28;20174;-89
2023/12/05 01:58:34;;;;;;;1.70;1.57;;;1.10;99.90;;;;;;5032240;28;20535;-87
2023/12/05 02:01:04;;;;;;;0.37;0.37;;;1.10;99.90;;;;;;5033114;28;20654;-88
2023/12/05 02:03:31;;;;;;;1.30;1.30;;;1.30;99.90;;;;;;5031967;28;20175;-89
2023/12/05 02:05:58;;;;;;;2.10;2.00;;;1.30;99.90;;;;;;5015384;28;20261;-88
2023/12/05 02:08:27;;;;;;;3.50;2.60;;;1.30;99.90;;;;;;4999053;28;20186;-88
2023/12/05 02:10:53;;;;;;;1.40;1.40;;;1.30;99.90;;;;;;5031457;28;20203;-88
2023/12/05 02:13:19;;;;;;;2.53;2.40;;;1.30;99.90;;;;;;5015183;28;20224;-89
2023/12/05 02:15:50;;;;;;;0.47;0.47;;;1.30;99.90;;;;;;5014887;28;20536;-88
2023/12/05 02:18:18;;;;;;;1.87;1.77;;;1.20;99.90;;;;;;5031488;28;20180;-88
2023/12/05 02:20:49;;;;;;;1.80;0.83;;;1.30;99.90;;;;;;5033105;28;20197;-87
2023/12/05 02:23:35;;;;;;;1.67;1.57;;;1.20;99.90;;;;;;5031359;28;20698;-88
2023/12/05 02:26:39;;;;;;;4.47;2.60;;;1.20;99.90;;;;;;5031215;28;20170;-87
2023/12/05 02:29:05;;;;;;;1.03;1.03;;;1.30;99.90;;;;;;5032770;28;20594;-87
2023/12/05 02:31:31;;;;;;;1.83;1.73;;;1.30;99.90;;;;;;5031468;28;20206;-88
2023/12/05 02:33:57;;;;;;;0.53;0.53;;;1.20;99.90;;;;;;5016404;28;20189;-87
2023/12/05 02:36:41;;;;;;;0.60;0.60;;;1.30;99.90;;;;;;5036026;28;20599;-88
2023/12/05 02:39:19;;;;;;;3.57;3.07;;;1.30;99.90;;;;;;5035467;28;20175;-88
2023/12/05 02:41:51;;;;;;;2.67;1.83;;;1.30;99.90;;;;;;5035580;28;20174;-87
2023/12/05 02:44:19;;;;;;;1.87;1.80;;;1.40;99.90;;;;;;5035677;28;20244;-89
2023/12/05 02:46:47;;;;;;;1.50;1.47;;;1.30;99.90;;;;;;5037143;28;20229;-88
2023/12/05 02:49:13;;;;;;;4.70;2.93;;;1.30;99.90;;;;;;5036212;28;20229;-87
2023/12/05 02:51:40;;;;;;;1.10;1.10;;;1.40;99.90;;;;;;5035024;28;20218;-86
2023/12/05 02:54:06;;;;;;;1.43;1.37;;;1.20;99.90;;;;;;5019028;28;20269;-88
2023/12/05 02:56:34;;;;;;;1.73;1.63;;;1.30;99.90;;;;;;5018735;28;20232;-87
2023/12/05 02:59:00;;;;;;;0.50;0.50;;;1.30;99.90;;;;;;5035245;28;20717;-87
2023/12/05 03:01:26;;;;;;;0.60;0.60;;;1.20;99.90;;;;;;5002224;28;20183;-89
2023/12/05 03:03:52;;;;;;;2.97;1.77;;;1.10;99.90;;;;;;5018640;28;20536;-87
2023/12/05 03:06:17;;;;;;;1.43;1.33;;;1.30;99.90;;;;;;5034758;28;20263;-88
2023/12/05 03:08:43;;;;;;;0.97;0.97;;;1.30;99.90;;;;;;5002077;28;20186;-87
2023/12/05 03:11:09;;;;;;;2.97;2.73;;;1.20;99.90;;;;;;5018446;28;20213;-88
2023/12/05 03:13:39;;;;;;;1.10;1.10;;;1.20;99.90;;;;;;5002181;28;20183;-86
2023/12/05 03:16:05;;;;;;;6.70;1.67;;;1.20;99.90;;;;;;5034911;28;20175;-87
2023/12/05 03:18:31;;;;;;;3.63;2.03;;;1.10;99.90;;;;;;5034829;28;20175;-87
2023/12/05 03:20:56;;;;;;;1.43;1.33;;;1.20;99.90;;;;;;5034479;28;20254;-87
2023/12/05 03:23:22;;;;;;;1.67;1.67;;;1.20;99.90;;;;;;5002146;28;20178;-87
2023/12/05 03:25:48;;;;;;;0.90;0.90;;;1.10;99.90;;;;;;5035034;28;20519;-87
2023/12/05 03:28:13;;;;;;;2.30;2.20;;;1.10;99.90;;;;;;5018020;28;20183;-87
2023/12/05 03:30:39;;;;;;;1.67;1.67;;;1.20;99.90;;;;;;5035139;28;20310;-87
2023/12/05 03:33:05;;;;;;;0.90;0.90;;;1.10;99.90;;;;;;5017711;28;20748;-88
2023/12/05 03:35:30;;;;;;;0.87;0.83;;;1.10;99.90;;;;;;5018048;28;20278;-86
2023/12/05 03:37:56;;;;;;;1.33;1.23;;;1.20;99.90;;;;;;5017627;28;20179;-87
2023/12/05 03:40:22;;;;;;;1.87;1.77;;;1.20;99.90;;;;;;5017830;28;20653;-87
2023/12/05 03:42:48;;;;;;;0.93;0.93;;;1.20;99.90;;;;;;5001688;28;20190;-85
2023/12/05 03:45:13;;;;;;;1.13;1.07;;;1.30;99.90;;;;;;5017475;28;20718;-89
2023/12/05 03:47:39;;;;;;;1.13;1.00;;;1.20;99.90;;;;;;5034575;28;20269;-87
2023/12/05 03:50:05;;;;;;;1.10;1.03;;;1.10;99.90;;;;;;5018085;28;20244;-88
2023/12/05 03:52:31;;;;;;;1.27;1.27;;;1.10;99.90;;;;;;5002052;28;20655;-88
2023/12/05 03:54:57;;;;;;;2.20;2.10;;;1.10;99.90;;;;;;5001561;28;20274;-87
2023/12/05 03:57:23;;;;;;;0.50;0.50;;;1.10;99.90;;;;;;5001627;28;20175;-89
2023/12/05 03:59:49;;;;;;;1.37;1.33;;;1.00;99.90;;;;;;5035078;28;20523;-87
2023/12/05 04:02:15;;;;;;;2.40;2.20;;;1.20;99.90;;;;;;5035824;28;20233;-87
2023/12/05 04:04:41;;;;;;;0.87;0.87;;;1.10;99.90;;;;;;5017245;28;20200;-87
2023/12/05 04:07:06;;;;;;;1.40;1.40;;;1.10;99.90;;;;;;5017713;28;20266;-88
2023/12/05 04:09:32;;;;;;;0.73;0.73;;;1.00;99.90;;;;;;5001610;28;20305;-88
2023/12/05 04:11:58;;;;;;;0.53;0.53;;;1.00;99.90;;;;;;5000939;28;20269;-87
2023/12/05 04:14:24;;;;;;;1.00;1.00;;;1.10;99.90;;;;;;4984904;28;20182;-87
2023/12/05 04:16:50;;;;;;;0.73;0.73;;;1.10;99.90;;;;;;4985392;28;20186;-88
2023/12/05 04:19:16;;;;;;;1.20;1.20;;;1.00;99.90;;;;;;5017308;28;20186;-87
2023/12/05 04:21:42;;;;;;;0.40;0.40;;;1.10;99.90;;;;;;5000986;28;20175;-90
2023/12/05 04:24:07;;;;;;;1.13;1.13;;;1.10;99.90;;;;;;5034725;28;20178;-88
2023/12/05 04:26:33;;;;;;;2.87;1.53;;;1.10;99.90;;;;;;5017278;28;20321;-88
2023/12/05 04:28:59;;;;;;;1.00;1.00;;;1.10;99.90;;;;;;5000755;28;20183;-87
2023/12/05 04:31:27;;;;;;;0.53;0.53;;;1.10;99.90;;;;;;5034734;28;20256;-88
2023/12/05 04:33:53;;;;;;;1.30;1.20;;;1.10;99.90;;;;;;5016793;28;20182;-88
2023/12/05 04:36:19;;;;;;;0.83;0.83;;;1.10;99.90;;;;;;5016973;28;20182;-88
2023/12/05 04:38:45;;;;;;;0.30;0.30;;;1.00;99.90;;;;;;5017062;28;20502;-87
2023/12/05 04:41:11;;;;;;;3.20;2.97;;;1.00;99.90;;;;;;5016783;28;20210;-87
2023/12/05 04:43:36;;;;;;;3.10;1.87;;;1.10;99.90;;;;;;5016781;28;20186;-87
2023/12/05 04:46:02;;;;;;;1.63;1.33;;;1.00;99.90;;;;;;5000486;28;20194;-87
2023/12/05 04:48:28;;;;;;;1.53;1.53;;;1.00;99.90;;;;;;5016797;28;20186;-87
2023/12/05 04:50:54;;;;;;;1.93;1.80;;;1.00;99.90;;;;;;5016692;28;20744;-86
2023/12/05 04:53:20;;;;;;;3.53;3.33;;;1.00;99.90;;;;;;4999972;28;20210;-89
2023/12/05 04:55:46;;;;;;;5.00;1.47;;;1.10;99.90;;;;;;5016663;28;20179;-88
2023/12/05 04:58:11;;;;;;;1.40;1.40;;;1.00;99.90;;;;;;5016775;28;20175;-88
2023/12/05 05:00:37;;;;;;;2.20;1.47;;;1.00;99.90;;;;;;4999892;28;20538;-87
2023/12/05 05:03:04;;;;;;;2.57;2.43;;;1.10;99.90;;;;;;4999880;28;20183;-88
2023/12/05 05:05:29;;;;;;;2.40;1.97;;;1.00;99.90;;;;;;5004623;28;20219;-89
2023/12/05 05:07:55;;;;;;;0.97;0.90;;;1.10;99.90;;;;;;5000511;28;20187;-88
2023/12/05 05:10:21;;;;;;;2.20;2.07;;;1.10;99.90;;;;;;5016569;28;20369;-88
2023/12/05 05:12:47;;;;;;;1.60;1.00;;;1.00;99.90;;;;;;5000059;28;20193;-87
2023/12/05 05:15:12;;;;;;;0.87;0.87;;;1.00;99.90;;;;;;5032380;28;20564;-88
2023/12/05 05:17:38;;;;;;;0.77;0.77;;;1.20;99.90;;;;;;5000285;28;20214;-89
2023/12/05 05:20:05;;;;;;;4.63;2.23;;;1.00;99.90;;;;;;5032356;28;20635;-87
2023/12/05 05:22:30;;;;;;;0.90;0.90;;;1.10;99.90;;;;;;4999687;28;20187;-88
2023/12/05 05:24:56;;;;;;;0.53;0.53;;;1.10;99.90;;;;;;5033694;28;20189;-87
2023/12/05 05:27:22;;;;;;;2.50;2.27;;;1.10;99.90;;;;;;5015557;28;20190;-87
2023/12/05 05:29:47;;;;;;;1.50;1.37;;;1.10;99.90;;;;;;5015935;28;20207;-88
2023/12/05 05:32:13;;;;;;;2.33;1.73;;;1.20;99.90;;;;;;5032278;28;20244;-87
2023/12/05 05:34:39;;;;;;;1.47;1.20;;;1.20;99.90;;;;;;5015716;28;20630;-87
2023/12/05 05:37:05;;;;;;;1.43;1.43;;;1.20;99.90;;;;;;5033683;28;20607;-87
2023/12/05 05:39:33;;;;;;;1.70;1.60;;;1.20;99.90;;;;;;5016198;28;20642;-87
2023/12/05 05:41:58;;;;;;;1.10;1.10;;;1.20;99.90;;;;;;5032477;28;20179;-88
2023/12/05 05:44:24;;;;;;;1.70;1.70;;;1.20;99.90;;;;;;5031975;28;20274;-87
2023/12/05 05:46:50;;;;;;;1.57;1.57;;;1.20;99.90;;;;;;5016277;28;20631;-88
2023/12/05 05:49:16;;;;;;;1.40;1.30;;;1.10;99.90;;;;;;5032028;28;20215;-88
2023/12/05 05:51:41;;;;;;;2.20;2.10;;;1.20;99.90;;;;;;5015598;28;20278;-86
2023/12/05 05:54:07;;;;;;;4.10;2.67;;;1.20;99.90;;;;;;5015469;28;20187;-86
2023/12/05 05:56:39;;;;;;;2.83;2.63;;;1.10;99.90;;;;;;5016033;28;20186;-87
2023/12/05 05:59:07;;;;;;;3.67;3.03;;;1.10;99.90;;;;;;5015613;28;20179;-88
2023/12/05 06:01:33;;;;;;;1.97;1.87;;;1.20;99.90;;;;;;5016196;28;20194;-88
2023/12/05 06:03:59;;;;;;;0.83;0.83;;;1.10;99.90;;;;;;4998953;28;20208;-88
2023/12/05 06:06:25;;;;;;;1.37;1.07;;;1.20;99.90;;;;;;5015259;28;20231;-87
2023/12/05 06:08:50;;;;;;;2.47;1.37;;;1.10;99.90;;;;;;4998793;28;20187;-87
2023/12/05 06:11:17;;;;;;;1.63;1.53;;;1.20;99.90;;;;;;4999517;28;20214;-88
2023/12/05 06:13:42;;;;;;;1.20;1.20;;;1.10;99.90;;;;;;5031907;28;20218;-87
2023/12/05 06:16:09;;;;;;;2.00;1.90;;;1.20;99.90;;;;;;4999161;28;20225;-88
2023/12/05 06:18:35;;;;;;;3.80;3.47;;;1.20;99.90;;;;;;5015215;28;20179;-87
2023/12/05 06:21:03;;;;;;;0.93;0.93;;;1.10;99.90;;;;;;4999075;28;20278;-87
2023/12/05 06:23:31;;;;;;;1.70;1.63;;;1.30;99.90;;;;;;5015318;28;20183;-85
2023/12/05 06:25:57;;;;;;;1.20;1.20;;;1.10;99.90;;;;;;5031560;28;20186;-87
2023/12/05 06:28:22;;;;;;;1.37;1.23;;;1.10;99.90;;;;;;5015290;28;20190;-89
2023/12/05 06:30:48;;;;;;;0.80;0.80;;;1.20;99.90;;;;;;5031983;28;20679;-87
2023/12/05 06:33:14;;;;;;;6.07;4.23;;;1.20;99.90;;;;;;5015028;28;20672;-87
2023/12/05 06:35:40;;;;;;;1.30;1.30;;;1.10;99.90;;;;;;5015322;28;20262;-88
2023/12/05 06:38:05;;;;;;;1.23;1.23;;;1.10;99.90;;;;;;5031620;28;20754;-86
2023/12/05 06:40:31;;;;;;;0.40;0.40;;;1.20;99.90;;;;;;5031990;28;20182;-88
2023/12/05 06:42:57;;;;;;;1.13;1.13;;;1.10;99.90;;;;;;5016042;28;20600;-86
2023/12/05 06:45:23;;;;;;;2.03;1.93;;;1.10;99.90;;;;;;5015245;28;20269;-85
2023/12/05 06:47:49;;;;;;;0.70;0.70;;;1.20;99.90;;;;;;5014972;28;20592;-84
2023/12/05 06:50:15;;;;;;;0.97;0.97;;;1.10;99.90;;;;;;5015579;28;20726;-88
2023/12/05 06:52:41;;;;;;;2.10;2.00;;;1.10;99.90;;;;;;5015108;28;20207;-89
2023/12/05 06:55:09;;;;;;;1.47;1.37;;;1.10;99.90;;;;;;5030919;28;20178;-86
2023/12/05 06:57:35;;;;;;;3.13;2.30;;;1.20;99.90;;;;;;5015375;28;20562;-87
2023/12/05 07:00:03;;;;;;;1.13;1.13;;;1.10;99.90;;;;;;5031507;28;20183;-87
2023/12/05 07:02:30;;;;;;;2.87;1.00;;;1.20;99.90;;;;;;5014860;28;20677;-87
2023/12/05 07:04:57;;;;;;;2.10;1.90;;;1.30;99.90;;;;;;5030800;28;20237;-87
2023/12/05 07:07:24;;;;;;;1.60;1.60;;;1.20;99.90;;;;;;4999252;28;20191;-86
2023/12/05 07:09:51;;;;;;;1.37;1.37;;;1.20;99.90;;;;;;4998271;28;20207;-88
2023/12/05 07:12:17;;;;;;;0.83;0.83;;;1.20;99.90;;;;;;4998252;28;20183;-85
2023/12/05 07:14:42;;;;;;;0.60;0.60;;;1.30;99.90;;;;;;4998253;28;20183;-86
2023/12/05 07:17:08;;;;;;;1.80;1.67;;;1.20;99.90;;;;;;5032178;28;20217;-85
2023/12/05 07:19:34;;;;;;;2.50;2.07;;;1.20;99.90;;;;;;4982110;28;20178;-87
2023/12/05 07:21:59;;;;;;;1.03;1.03;;;1.20;99.90;;;;;;4984831;28;20270;-86
2023/12/05 07:24:25;;;;;;;0.60;0.60;;;1.20;99.90;;;;;;5001474;28;20258;-86
2023/12/05 07:26:51;;;;;;;1.10;0.63;;;1.20;99.90;;;;;;4985538;28;20715;-87
2023/12/05 07:29:17;;;;;;;1.50;1.50;;;1.30;99.90;;;;;;5001522;28;20222;-88
2023/12/05 07:31:43;;;;;;;0.87;0.70;;;1.30;99.90;;;;;;5018464;28;20206;-86
2023/12/05 07:34:09;;;;;;;0.83;0.83;;;1.30;99.90;;;;;;5001688;28;20230;-86
2023/12/05 07:36:39;;;;;;;1.10;1.10;;;1.30;99.90;;;;;;5018516;28;20210;-87
2023/12/05 07:39:06;;;;;;;0.67;0.67;;;1.20;99.90;;;;;;5018467;28;20553;-88
2023/12/05 07:41:32;;;;;;;1.03;1.03;;;1.40;99.90;;;;;;5018399;28;20290;-88
2023/12/05 07:43:58;;;;;;;2.37;2.27;;;1.20;99.90;;;;;;5017922;28;20684;-88
2023/12/05 07:46:24;;;;;;;1.00;1.00;;;1.40;99.90;;;;;;5017967;28;20233;-88
2023/12/05 07:48:49;;;;;;;2.00;1.87;;;1.30;99.90;;;;;;5018540;28;20550;-87
2023/12/05 07:51:16;;;;;;;2.37;2.20;;;1.30;99.90;;;;;;5001515;28;20657;-88
2023/12/05 07:53:43;;;;;;;1.43;1.33;;;1.40;99.90;;;;;;5035504;28;20183;-87
2023/12/05 07:56:10;;;;;;;2.27;2.17;;;1.40;99.90;;;;;;5017498;28;20179;-87
2023/12/05 07:58:35;;;;;;;0.27;0.27;;;1.40;99.90;;;;;;5034788;28;20183;-86
2023/12/05 08:01:01;;;;;;;1.40;1.00;;;1.50;99.90;;;;;;5017316;28;20567;-87
2023/12/05 08:03:28;;;;;;;0.93;0.93;;;1.50;99.90;;;;;;5000569;28;20340;-86
2023/12/05 08:05:54;;;;;;;1.23;1.23;;;1.40;99.90;;;;;;5034126;28;20317;-85
2023/12/05 08:08:20;;;;;;;3.20;1.77;;;1.40;99.90;;;;;;5000470;28;20269;-85
2023/12/05 08:10:48;;;;;;;1.03;1.03;;;1.50;99.90;;;;;;5000158;28;20233;-87
2023/12/05 08:13:13;;;;;;;2.17;1.87;;;1.60;99.90;;;;;;5016432;28;20186;-86
2023/12/05 08:15:39;;;;;;;1.17;1.17;;;1.50;99.90;;;;;;5016237;28;20674;-86
2023/12/05 08:18:05;;;;;;;0.93;0.93;;;1.50;99.90;;;;;;5000393;28;20179;-84
2023/12/05 08:20:30;;;;;;;1.30;1.27;;;1.50;99.90;;;;;;5016433;28;20672;-85
2023/12/05 08:22:56;;;;;;;1.07;1.07;;;1.60;99.90;;;;;;5000204;28;20186;-85
2023/12/05 08:25:22;;;;;;;4.73;4.33;;;1.50;99.90;;;;;;5034211;28;20183;-87
2023/12/05 08:27:49;;;;;;;2.00;1.90;;;1.60;99.90;;;;;;5016083;28;20182;-84
2023/12/05 08:30:15;;;;;;;0.97;0.97;;;1.50;99.90;;;;;;5034317;28;20214;-87
2023/12/05 08:32:41;;;;;;;0.93;0.93;;;1.50;99.90;;;;;;5016057;28;20547;-86
2023/12/05 08:35:07;;;;;;;0.47;0.47;;;1.50;99.90;;;;;;5016348;28;20644;-85
2023/12/05 08:37:33;;;;;;;0.80;0.80;;;1.50;99.90;;;;;;4984351;28;20631;-85
2023/12/05 08:39:59;;;;;;;1.57;1.57;;;1.50;99.90;;;;;;4984334;28;20187;-85
2023/12/05 08:42:27;;;;;;;2.53;2.10;;;1.50;99.90;;;;;;4984062;28;20633;-84
2023/12/05 08:44:53;;;;;;;3.33;3.07;;;1.60;99.90;;;;;;5016517;28;20547;-85
2023/12/05 08:47:18;;;;;;;1.17;1.17;;;1.60;99.90;;;;;;4999897;28;20191;-83
2023/12/05 08:49:44;;;;;;;2.87;2.07;;;1.50;99.90;;;;;;5015874;28;20231;-85
2023/12/05 08:52:12;;;;;;;0.80;0.80;;;1.50;99.90;;;;;;4999549;28;20240;-85
2023/12/05 08:54:38;;;;;;;1.03;1.03;;;1.50;99.90;;;;;;4999941;28;20183;-84
2023/12/05 08:57:04;;;;;;;2.40;2.20;;;1.50;99.90;;;;;;5033586;28;20274;-83
2023/12/05 08:59:30;;;;;;;1.07;1.07;;;1.60;99.90;;;;;;5016185;28;20561;-84
2023/12/05 09:01:55;;;;;;;0.70;0.70;;;1.50;99.90;;;;;;4999620;28;20185;-84
2023/12/05 09:04:21;;;;;;;2.40;2.23;;;1.60;99.90;;;;;;4999215;28;20183;-85
2023/12/05 09:06:47;;;;;;;1.57;1.47;;;1.50;99.90;;;;;;5012449;28;20236;-82
2023/12/05 09:09:13;;;;;;;3.23;3.03;;;1.60;99.90;;;;;;5032047;28;20634;-84
2023/12/05 09:11:38;;;;;;;0.97;0.93;;;1.60;99.90;;;;;;5000097;28;20719;-83
2023/12/05 09:14:05;;;;;;;1.77;1.67;;;1.60;99.90;;;;;;5031860;28;20190;-83
2023/12/05 09:16:32;;;;;;;2.73;1.73;;;1.60;99.90;;;;;;5015571;28;20210;-83
2023/12/05 09:18:58;;;;;;;3.23;3.03;;;1.60;99.90;;;;;;5032364;28;20705;-84
2023/12/05 09:21:23;;;;;;;1.07;0.90;;;1.60;99.90;;;;;;4999367;28;20187;-85
2023/12/05 09:23:49;;;;;;;2.10;1.90;;;1.60;99.90;;;;;;5015674;28;20178;-85
2023/12/05 09:26:15;;;;;;;1.63;1.53;;;1.70;99.90;;;;;;5015604;28;20265;-85
2023/12/05 09:28:41;;;;;;;1.03;1.03;;;1.60;99.90;;;;;;5031635;28;20612;-83
2023/12/05 09:31:06;;;;;;;2.03;2.03;;;1.60;99.90;;;;;;5015174;28;20206;-83
2023/12/05 09:33:32;;;;;;;1.00;1.00;;;1.60;99.90;;;;;;4998717;28;20550;-83
2023/12/05 09:35:58;;;;;;;1.30;1.30;;;1.70;99.90;;;;;;5031539;28;20209;-84
2023/12/05 09:38:24;;;;;;;7.43;2.40;;;1.70;99.90;;;;;;5032659;28;20190;-83
2023/12/05 09:40:52;;;;;;;1.23;0.47;;;1.70;99.90;;;;;;5014771;28;20181;-84
2023/12/05 09:43:22;;;;;;;0.73;0.73;;;1.60;99.90;;;;;;5030728;28;20214;-86
2023/12/05 09:46:00;;;;;;;0.30;0.30;;;1.60;99.90;;;;;;5031712;28;20174;-85
2023/12/05 09:48:35;;;;;;;2.43;2.33;;;1.80;99.90;;;;;;5031112;28;20181;-83
2023/12/05 09:51:01;;;;;;;1.80;1.70;;;1.70;99.90;;;;;;5032860;28;20202;-83
2023/12/05 09:53:28;;;;;;;2.17;2.00;;;1.80;99.90;;;;;;4998848;28;20183;-84
2023/12/05 09:55:54;;;;;;;2.80;2.57;;;1.80;99.90;;;;;;5014748;28;20241;-83
2023/12/05 09:58:22;;;;;;;0.40;0.40;;;1.70;99.90;;;;;;5031246;28;20559;-86
2023/12/05 10:00:51;;;;;;;1.20;1.20;;;1.70;99.90;;;;;;5031916;28;20575;-86
2023/12/05 10:03:17;;;;;;;2.43;2.23;;;1.80;99.90;;;;;;5015052;28;20203;-85
2023/12/05 10:05:46;;;;;;;2.83;2.10;;;1.80;99.90;;;;;;5014021;28;20234;-85
2023/12/05 10:08:13;;;;;;;4.10;2.80;;;1.70;99.90;;;;;;5032331;28;20194;-86
2023/12/05 10:10:42;;;;;;;1.80;1.67;;;1.70;99.90;;;;;;5030820;28;20285;-85
2023/12/05 10:13:09;;;;;;;2.23;2.13;;;1.80;99.90;;;;;;5031027;28;20602;-85
2023/12/05 10:15:35;;;;;;;1.77;1.23;;;1.90;99.90;;;;;;5031602;28;20635;-84
2023/12/05 10:18:01;;;;;;;0.93;0.93;;;1.80;99.90;;;;;;5031165;28;20174;-85
2023/12/05 10:20:27;;;;;;;2.57;2.40;;;1.90;99.90;;;;;;5032705;28;20206;-85
2023/12/05 10:22:53;;;;;;;4.63;2.73;;;1.90;99.90;;;;;;5031428;28;20587;-85
2023/12/05 10:25:19;;;;;;;2.40;1.63;;;1.90;99.90;;;;;;4998311;28;20183;-85
2023/12/05 10:28:00;;;;;;;2.60;2.50;;;1.90;99.90;;;;;;5031795;28;20266;-85
2023/12/05 10:30:33;;;;;;;23.50;4.90;;;1.90;99.90;;;;;;5031364;28;20206;-86
2023/12/05 10:33:16;;;;;;;1.47;1.43;;;1.80;99.90;;;;;;5014566;28;20239;-86
2023/12/05 10:35:43;;;;;;;1.23;1.23;;;1.90;99.90;;;;;;5032198;28;20228;-92
2023/12/05 10:38:14;;;;;;;1.77;1.67;;;1.80;99.90;;;;;;4999624;28;20186;-92
2023/12/05 10:40:52;;;;;;;2.80;2.60;;;1.80;99.90;;;;;;5032169;28;20167;-91
2023/12/05 10:43:19;;;;;;;2.70;2.50;;;1.80;99.90;;;;;;5033648;28;20178;-91
2023/12/05 10:45:45;;;;;;;4.97;1.87;;;1.90;99.90;;;;;;5032590;28;20233;-96
2023/12/05 10:48:12;;;;;;;1.13;1.13;;;1.80;99.90;;;;;;5000020;28;20273;-92
2023/12/05 10:54:21;;;;;;;2.50;2.40;;;1.80;99.90;;;;;;4990525;28;20236;-92
2023/12/05 10:56:59;;;;;;;4.00;3.77;;;1.80;99.90;;;;;;5035860;28;20189;-92
2023/12/05 10:59:29;;;;;;;1.40;1.40;;;1.90;99.90;;;;;;5041054;28;20179;-93
2023/12/05 11:02:01;;;;;;;3.73;2.77;;;1.90;99.90;;;;;;5037978;28;20167;-92
2023/12/05 11:04:27;;;;;;;1.90;1.80;;;1.90;99.90;;;;;;5028681;28;20226;-91
2023/12/05 11:11:07;;;;;;;1.23;1.23;;;1.90;99.90;;;;;;5037755;28;20248;-92
2023/12/05 11:13:37;;;;;;;1.33;1.00;;;1.90;99.90;;;;;;5013751;28;20221;-92
2023/12/05 11:16:32;;;;;;;6.10;3.90;;;1.90;99.90;;;;;;5041292;28;20366;-91
2023/12/05 11:19:35;;;;;;;2.27;2.17;;;2.00;99.90;;;;;;5040080;28;20217;-91
2023/12/05 11:22:16;;;;;;;1.50;1.50;;;2.00;99.90;;;;;;5039364;28;20200;-91
2023/12/05 11:25:08;;;;;;;2.20;2.10;;;2.00;99.90;;;;;;5041975;28;20162;-96
2023/12/05 11:28:27;;;;;;;;;;;;;;;;;;;;;
2023/12/05 11:38:22;;;;;;;0.70;0.70;;;2.10;99.90;;;;;;5037098;28;20233;-92
2023/12/05 11:41:11;;;;;;;2.03;1.97;;;2.10;99.90;;;;;;5002830;28;20233;-93
2023/12/05 11:47:08;;;;;;;3.37;3.23;;;2.10;99.90;;;;;;4996251;28;20187;-93
2023/12/05 11:49:40;;;;;;;1.70;1.60;;;2.10;99.90;;;;;;4969388;28;20266;-94
2023/12/05 11:52:10;;;;;;;1.63;1.10;;;2.00;99.90;;;;;;4998090;28;20219;-86
2023/12/05 11:54:36;;;;;;;1.77;1.43;;;2.10;99.90;;;;;;4996306;28;20731;-87
2023/12/05 11:57:23;;;;;;;1.57;1.53;;;2.10;99.90;;;;;;5014927;28;20226;-87
2023/12/05 11:59:56;;;;;;;0.80;0.80;;;2.10;99.90;;;;;;5014980;28;20607;-86
2023/12/05 12:02:31;;;;;;;1.67;1.67;;;2.10;99.90;;;;;;5015688;28;20321;-86
2023/12/05 12:05:16;;;;;;;2.07;1.83;;;2.10;99.90;;;;;;5015581;28;20678;-87
2023/12/05 12:07:48;;;;;;;2.00;1.90;;;2.30;99.90;;;;;;5031223;28;20226;-87
2023/12/05 12:10:17;;;;;;;1.43;1.33;;;2.30;99.90;;;;;;5036222;28;20244;-87
2023/12/05 12:12:44;;;;;;;2.77;2.07;;;2.20;99.90;;;;;;5053470;28;20228;-88
2023/12/05 12:15:11;;;;;;;2.83;2.73;;;2.30;99.90;;;;;;5019635;28;20210;-88
2023/12/05 12:17:44;;;;;;;2.63;2.00;;;2.20;99.90;;;;;;5036930;28;20178;-87
2023/12/05 12:20:17;;;;;;;3.07;2.77;;;2.30;99.90;;;;;;5036536;28;20229;-87
2023/12/05 12:22:43;;;;;;;1.43;1.43;;;2.30;99.90;;;;;;5035577;28;20214;-87
2023/12/05 12:25:13;;;;;;;3.37;3.17;;;2.20;99.90;;;;;;5019538;28;20257;-88
2023/12/05 12:27:43;;;;;;;2.23;2.13;;;2.30;99.90;;;;;;5020051;28;20226;-88
2023/12/05 12:30:12;;;;;;;1.50;1.50;;;2.30;99.90;;;;;;5019121;28;20213;-87
2023/12/05 12:33:04;;;;;;;1.20;1.20;;;2.30;99.90;;;;;;5020972;28;20166;-86
2023/12/05 12:35:31;;;;;;;0.97;0.97;;;2.40;99.90;;;;;;5053833;28;20194;-86
2023/12/05 12:37:56;;;;;;;3.20;3.00;;;2.30;99.90;;;;;;5019450;28;20245;-86
2023/12/05 12:40:25;;;;;;;1.33;1.27;;;2.40;99.90;;;;;;5051718;28;20225;-87
2023/12/05 12:42:54;;;;;;;1.73;1.63;;;2.40;99.90;;;;;;5003591;28;20220;-88
2023/12/05 12:45:25;;;;;;;4.17;2.07;;;2.30;99.90;;;;;;5035891;28;20241;-86
2023/12/05 12:47:51;;;;;;;3.00;2.83;;;2.30;99.90;;;;;;5036278;28;20182;-87
2023/12/05 12:50:17;;;;;;;3.03;2.93;;;2.30;99.90;;;;;;5019337;28;20281;-85
2023/12/05 12:52:43;;;;;;;3.17;2.97;;;2.40;99.90;;;;;;5031461;28;20242;-88
2023/12/05 12:55:10;;;;;;;8.43;4.00;;;2.30;99.90;;;;;;4999305;28;20649;-84
2023/12/05 12:57:35;;;;;;;4.17;3.87;;;2.40;99.90;;;;;;5032925;28;20218;-85
2023/12/05 13:00:09;;;;;;;1.97;1.73;;;2.40;99.90;;;;;;4999090;28;20233;-85
2023/12/05 13:02:35;;;;;;;2.60;2.40;;;2.40;99.90;;;;;;4999472;28;20177;-84
2023/12/05 13:05:01;;;;;;;1.40;1.30;;;2.40;99.90;;;;;;5034226;28;20297;-87
2023/12/05 13:07:29;;;;;;;5.80;1.80;;;2.40;99.90;;;;;;5052312;28;20241;-85
2023/12/05 13:09:56;;;;;;;1.87;1.83;;;2.40;99.90;;;;;;5018859;28;20228;-84
2023/12/05 13:12:22;;;;;;;2.97;2.80;;;2.40;99.90;;;;;;5017815;28;20210;-83
2023/12/05 13:14:51;;;;;;;2.97;2.20;;;2.40;99.90;;;;;;5017536;28;20372;-85
2023/12/05 13:17:18;;;;;;;2.97;2.87;;;2.50;99.90;;;;;;5052611;28;20521;-85
2023/12/05 13:19:44;;;;;;;3.20;1.83;;;2.40;99.90;;;;;;5016843;28;20296;-85